sensor_id;sensor_type;location;lat;lon;timestamp;pressure;altitude;pressure_sealevel;temperature;humidity
6034;BME280;3045;43.226;27.858;2023-12-14T00:01:12;4254.06;;;11.03;100.00
6034;BME280;3045;43.226;27.858;2023-12-14T00:03:40;4895.50;;;11.11;100.00
6034;BME280;3045;43.226;27.858;2023-12-14T00:06:11;3613.28;;;10.98;100.00
6034;BME280;3045;43.226;27.858;2023-12-14T00:08:38;2975.94;;;11.26;100.00
6034;BME280;3045;43.226;27.858;2023-12-14T00:11:06;4899.09;;;11.38;100.00
6034;BME280;3045;43.226;27.858;2023-12-14T00:13:33;5861.13;;;11.43;100.00
6034;BME280;3045;43.226;27.858;2023-12-14T00:16:01;4580.34;;;11.52;100.00
6034;BME280;3045;43.226;27.858;2023-12-14T00:18:28;3940.13;;;11.57;100.00
6034;BME280;3045;43.226;27.858;2023-12-14T00:20:56;3939.53;;;11.52;100.00
6034;BME280;3045;43.226;27.858;2023-12-14T00:23:24;2017.56;;;11.50;100.00
6034;BME280;3045;43.226;27.858;2023-12-14T00:25:51;1699.53;;;11.77;100.00
6034;BME280;3045;43.226;27.858;2023-12-14T00:28:18;7467.50;;;11.62;100.00
6034;BME280;3045;43.226;27.858;2023-12-14T00:30:45;15170.81;;;11.46;100.00
6034;BME280;3045;43.226;27.858;2023-12-14T00:33:12;21601.34;;;11.34;100.00
6034;BME280;3045;43.226;27.858;2023-12-14T00:35:39;19018.94;;;11.14;100.00
6034;BME280;3045;43.226;27.858;2023-12-14T00:38:07;19980.09;;;11.04;100.00
6034;BME280;3045;43.226;27.858;2023-12-14T00:40:35;19334.91;;;10.98;100.00
6034;BME280;3045;43.226;27.858;2023-12-14T00:43:02;17721.94;;;10.83;100.00
6034;BME280;3045;43.226;27.858;2023-12-14T00:45:29;12260.28;;;10.72;100.00
6034;BME280;3045;43.226;27.858;2023-12-14T00:47:56;4251.91;;;10.85;100.00
6034;BME280;3045;43.226;27.858;2023-12-14T00:50:23;-1184.72;;;10.92;100.00
6034;BME280;3045;43.226;27.858;2023-12-14T00:52:50;-2143.38;;;10.90;100.00
6034;BME280;3045;43.226;27.858;2023-12-14T00:55:17;1692.78;;;10.92;100.00
6034;BME280;3045;43.226;27.858;2023-12-14T00:57:46;5212.31;;;10.85;100.00
6034;BME280;3045;43.226;27.858;2023-12-14T01:00:13;3931.44;;;10.82;100.00
6034;BME280;3045;43.226;27.858;2023-12-14T01:02:41;1372.50;;;10.86;100.00
6034;BME280;3045;43.226;27.858;2023-12-14T01:05:08;733.25;;;10.90;100.00
6034;BME280;3045;43.226;27.858;2023-12-14T01:07:35;3612.31;;;10.90;100.00
6034;BME280;3045;43.226;27.858;2023-12-14T01:10:02;6173.34;;;10.88;100.00
6034;BME280;3045;43.226;27.858;2023-12-14T01:12:29;10338.19;;;10.81;100.00
6034;BME280;3045;43.226;27.858;2023-12-14T01:14:58;8414.28;;;10.78;100.00
6034;BME280;3045;43.226;27.858;2023-12-14T01:17:25;3291.13;;;10.79;100.00
6034;BME280;3045;43.226;27.858;2023-12-14T01:19:53;5530.22;;;10.69;100.00
6034;BME280;3045;43.226;27.858;2023-12-14T01:22:20;11292.97;;;10.50;100.00
6034;BME280;3045;43.226;27.858;2023-12-14T01:24:47;14179.75;;;10.51;100.00
6034;BME280;3045;43.226;27.858;2023-12-14T01:27:14;14499.63;;;10.47;100.00
6034;BME280;3045;43.226;27.858;2023-12-14T01:29:41;16423.22;;;10.40;100.00
6034;BME280;3045;43.226;27.858;2023-12-14T01:32:09;14495.56;;;10.33;100.00
6034;BME280;3045;43.226;27.858;2023-12-14T01:34:36;13848.16;;;10.12;100.00
6034;BME280;3045;43.226;27.858;2023-12-14T01:37:04;10003.66;;;10.16;100.00
6034;BME280;3045;43.226;27.858;2023-12-14T01:39:31;9681.19;;;10.05;100.00
6034;BME280;3045;43.226;27.858;2023-12-14T01:41:58;7121.13;;;10.08;100.00
6034;BME280;3045;43.226;27.858;2023-12-14T01:44:25;6480.22;;;10.02;100.00
6034;BME280;3045;43.226;27.858;2023-12-14T01:46:52;6480.63;;;10.04;100.00
6034;BME280;3045;43.226;27.858;2023-12-14T01:49:20;7439.63;;;10.00;100.00
6034;BME280;3045;43.226;27.858;2023-12-14T01:51:47;6479.44;;;9.97;100.00
6034;BME280;3045;43.226;27.858;2023-12-14T01:54:14;7438.91;;;9.96;100.00
6034;BME280;3045;43.226;27.858;2023-12-14T01:56:42;5199.34;;;9.90;100.00
6034;BME280;3045;43.226;27.858;2023-12-14T01:59:09;5837.00;;;9.78;100.00
6034;BME280;3045;43.226;27.858;2023-12-14T02:01:38;3597.88;;;9.58;100.00
6034;BME280;3045;43.226;27.858;2023-12-14T02:04:07;2959.41;;;9.60;100.00
6034;BME280;3045;43.226;27.858;2023-12-14T02:06:35;3597.88;;;9.58;100.00
6034;BME280;3045;43.226;27.858;2023-12-14T02:09:02;4556.97;;;9.65;100.00
6034;BME280;3045;43.226;27.858;2023-12-14T02:11:29;6472.66;;;9.53;100.00
6034;BME280;3045;43.226;27.858;2023-12-14T02:13:57;6474.06;;;9.62;100.00
6034;BME280;3045;43.226;27.858;2023-12-14T02:16:24;6794.31;;;9.66;100.00
6034;BME280;3045;43.226;27.858;2023-12-14T02:18:51;6474.38;;;9.64;100.00
6034;BME280;3045;43.226;27.858;2023-12-14T02:21:18;6155.34;;;9.69;100.00
6034;BME280;3045;43.226;27.858;2023-12-14T02:23:47;6793.44;;;9.60;100.00
6034;BME280;3045;43.226;27.858;2023-12-14T02:26:14;5514.78;;;9.59;100.00
6034;BME280;3045;43.226;27.858;2023-12-14T02:28:41;4237.44;;;9.64;100.00
6034;BME280;3045;43.226;27.858;2023-12-14T02:31:08;6791.47;;;9.48;100.00
6034;BME280;3045;43.226;27.858;2023-12-14T02:33:35;6472.50;;;9.52;100.00
6034;BME280;3045;43.226;27.858;2023-12-14T02:36:02;5833.50;;;9.53;100.00
6034;BME280;3045;43.226;27.858;2023-12-14T02:38:30;6153.22;;;9.54;100.00
6034;BME280;3045;43.226;27.858;2023-12-14T02:40:58;6153.06;;;9.53;100.00
6034;BME280;3045;43.226;27.858;2023-12-14T02:43:25;4876.28;;;9.63;100.00
6034;BME280;3045;43.226;27.858;2023-12-14T02:45:52;1684.09;;;9.81;100.00
6034;BME280;3045;43.226;27.858;2023-12-14T02:48:20;2962.56;;;9.92;100.00
6034;BME280;3045;43.226;27.858;2023-12-14T02:50:47;7118.00;;;9.90;100.00
6034;BME280;3045;43.226;27.858;2023-12-14T02:53:14;9357.41;;;9.88;100.00
6034;BME280;3045;43.226;27.858;2023-12-14T02:55:41;8716.66;;;9.84;100.00
6034;BME280;3045;43.226;27.858;2023-12-14T02:58:10;6158.84;;;9.92;100.00
6034;BME280;3045;43.226;27.858;2023-12-14T03:00:37;3922.44;;;10.03;100.00
6034;BME280;3045;43.226;27.858;2023-12-14T03:03:04;2326.47;;;10.23;100.00
6034;BME280;3045;43.226;27.858;2023-12-14T03:05:31;2008.25;;;10.39;100.00
6034;BME280;3045;43.226;27.858;2023-12-14T03:07:58;2329.75;;;10.60;100.00
6034;BME280;3045;43.226;27.858;2023-12-14T03:10:25;3930.97;;;10.78;100.00
6034;BME280;3045;43.226;27.858;2023-12-14T03:12:52;8200.19;;;10.85;100.00
6034;BME280;3045;43.226;27.858;2023-12-14T03:15:20;14668.81;;;10.78;100.00
6034;BME280;3045;43.226;27.858;2023-12-14T03:17:47;14110.50;;;10.81;100.00
6034;BME280;3045;43.226;27.858;2023-12-14T03:20:15;10228.97;;;10.86;100.00
6034;BME280;3045;43.226;27.858;2023-12-14T03:22:42;6814.53;;;10.91;100.00
6034;BME280;3045;43.226;27.858;2023-12-14T03:25:09;5213.19;;;10.92;100.00
6034;BME280;3045;43.226;27.858;2023-12-14T03:27:36;4256.13;;;11.20;100.00
6034;BME280;3045;43.226;27.858;2023-12-14T03:30:03;4257.75;;;11.34;100.00
6034;BME280;3045;43.226;27.858;2023-12-14T03:32:34;5540.41;;;11.41;100.00
6034;BME280;3045;43.226;27.858;2023-12-14T03:35:02;5542.25;;;11.55;100.00
6034;BME280;3045;43.226;27.858;2023-12-14T03:37:29;7787.69;;;11.59;100.00
6034;BME280;3045;43.226;27.858;2023-12-14T03:39:56;6826.72;;;11.67;100.00
6034;BME280;3045;43.226;27.858;2023-12-14T03:42:23;5224.75;;;11.77;100.00
6034;BME280;3045;43.226;27.858;2023-12-14T03:44:50;4263.31;;;11.80;100.00
6034;BME280;3045;43.226;27.858;2023-12-14T03:47:17;3302.88;;;11.90;100.00
6034;BME280;3045;43.226;27.858;2023-12-14T03:49:45;2021.75;;;12.00;100.00
6034;BME280;3045;43.226;27.858;2023-12-14T03:52:12;1381.25;;;12.04;100.00
6034;BME280;3045;43.226;27.858;2023-12-14T03:54:39;99.88;;;12.05;100.00
6034;BME280;3045;43.226;27.858;2023-12-14T03:57:06;-1501.13;;;12.07;100.00
6034;BME280;3045;43.226;27.858;2023-12-14T03:59:34;-2461.41;;;12.07;100.00
6034;BME280;3045;43.226;27.858;2023-12-14T04:02:01;-4061.38;;;12.15;100.00
6034;BME280;3045;43.226;27.858;2023-12-14T04:04:28;-4061.28;;;12.08;100.00
6034;BME280;3045;43.226;27.858;2023-12-14T04:06:56;-5341.16;;;12.23;100.00
6034;BME280;3045;43.226;27.858;2023-12-14T04:09:23;-5661.28;;;12.31;100.00
6034;BME280;3045;43.226;27.858;2023-12-14T04:11:50;-5341.34;;;12.28;100.00
6034;BME280;3045;43.226;27.858;2023-12-14T04:14:18;-5021.72;;;12.38;100.00
6034;BME280;3045;43.226;27.858;2023-12-14T04:16:45;-4381.56;;;12.29;100.00
6034;BME280;3045;43.226;27.858;2023-12-14T04:19:12;-3101.38;;;12.41;100.00
6034;BME280;3045;43.226;27.858;2023-12-14T04:21:39;-1179.91;;;12.39;100.00
6034;BME280;3045;43.226;27.858;2023-12-14T04:24:07;1383.47;;;12.34;100.00
6034;BME280;3045;43.226;27.858;2023-12-14T04:26:34;1704.66;;;12.42;100.00
6034;BME280;3045;43.226;27.858;2023-12-14T04:29:02;1704.75;;;12.43;100.00
6034;BME280;3045;43.226;27.858;2023-12-14T04:31:29;2025.75;;;12.47;100.00
6034;BME280;3045;43.226;27.858;2023-12-14T04:33:56;3308.44;;;12.44;100.00
6034;BME280;3045;43.226;27.858;2023-12-14T04:36:23;3308.44;;;12.44;100.00
6034;BME280;3045;43.226;27.858;2023-12-14T04:38:50;3308.66;;;12.46;100.00
6034;BME280;3045;43.226;27.858;2023-12-14T04:41:19;3950.47;;;12.47;100.00
6034;BME280;3045;43.226;27.858;2023-12-14T04:43:46;3629.63;;;12.47;100.00
6034;BME280;3045;43.226;27.858;2023-12-14T04:46:13;3627.88;;;12.31;100.00
6034;BME280;3045;43.226;27.858;2023-12-14T04:48:40;3308.25;;;12.42;100.00
6034;BME280;3045;43.226;27.858;2023-12-14T04:51:11;2987.41;;;12.41;100.00
6034;BME280;3045;43.226;27.858;2023-12-14T04:53:39;2666.88;;;12.43;100.00
6034;BME280;3045;43.226;27.858;2023-12-14T04:56:10;7479.81;;;12.33;100.00
6034;BME280;3045;43.226;27.858;2023-12-14T04:58:40;15513.06;;;12.15;100.00
6034;BME280;3045;43.226;27.858;2023-12-14T05:01:07;18407.09;;;12.04;100.00
6034;BME280;3045;43.226;27.858;2023-12-14T05:03:35;19691.50;;;11.93;100.00
6034;BME280;3045;43.226;27.858;2023-12-14T05:06:02;19679.91;;;11.62;100.00
6034;BME280;3045;43.226;27.858;2023-12-14T05:08:29;19360.53;;;11.69;100.00
6034;BME280;3045;43.226;27.858;2023-12-14T05:10:56;13889.84;;;11.63;100.00
6034;BME280;3045;43.226;27.858;2023-12-14T05:13:23;8751.81;;;11.67;100.00
6034;BME280;3045;43.226;27.858;2023-12-14T05:15:52;5864.69;;;11.67;100.00
6034;BME280;3045;43.226;27.858;2023-12-14T05:18:19;2980.28;;;11.70;100.00
6034;BME280;3045;43.226;27.858;2023-12-14T05:20:46;739.06;;;11.82;100.00
6034;BME280;3045;43.226;27.858;2023-12-14T05:23:13;99.03;;;11.89;100.00
6034;BME280;3045;43.226;27.858;2023-12-14T05:25:40;-541.38;;;11.87;100.00
6034;BME280;3045;43.226;27.858;2023-12-14T05:28:07;-220.50;;;12.02;100.00
6034;BME280;3045;43.226;27.858;2023-12-14T05:30:34;-540.09;;;12.17;100.00
6034;BME280;3045;43.226;27.858;2023-12-14T05:33:03;421.38;;;12.25;100.00
6034;BME280;3045;43.226;27.858;2023-12-14T05:35:30;1383.50;;;12.34;100.00
6034;BME280;3045;43.226;27.858;2023-12-14T05:37:57;2024.72;;;12.34;100.00
6034;BME280;3045;43.226;27.858;2023-12-14T05:40:24;3628.28;;;12.34;100.00
6034;BME280;3045;43.226;27.858;2023-12-14T05:42:51;4593.47;;;12.56;100.00
6034;BME280;3045;43.226;27.858;2023-12-14T05:45:18;7164.78;;;12.70;100.00
6034;BME280;3045;43.226;27.858;2023-12-14T05:47:45;10698.19;;;12.57;100.00
6034;BME280;3045;43.226;27.858;2023-12-14T05:50:14;13278.00;;;12.79;100.00
6034;BME280;3045;43.226;27.858;2023-12-14T05:52:41;15210.78;;;12.81;100.00
6034;BME280;3045;43.226;27.858;2023-12-14T05:55:09;16821.97;;;12.81;100.00
6034;BME280;3045;43.226;27.858;2023-12-14T05:57:36;20693.38;;;12.85;100.00
6034;BME280;3045;43.226;27.858;2023-12-14T06:00:04;25535.66;;;12.80;100.00
6034;BME280;3045;43.226;27.858;2023-12-14T06:02:32;26822.41;;;12.68;100.00
6034;BME280;3045;43.226;27.858;2023-12-14T06:05:01;21979.72;;;12.73;100.00
6034;BME280;3045;43.226;27.858;2023-12-14T06:07:30;21335.25;;;12.75;100.00
6034;BME280;3045;43.226;27.858;2023-12-14T06:09:57;21982.41;;;12.79;100.00
6034;BME280;3045;43.226;27.858;2023-12-14T06:12:24;21660.63;;;12.82;100.00
6034;BME280;3045;43.226;27.858;2023-12-14T06:14:51;21339.84;;;12.87;100.00
6034;BME280;3045;43.226;27.858;2023-12-14T06:17:19;21345.25;;;13.01;100.00
6034;BME280;3045;43.226;27.858;2023-12-14T06:19:46;22316.91;;;13.08;100.00
6034;BME280;3045;43.226;27.858;2023-12-14T06:22:13;26195.97;;;13.10;100.00
6034;BME280;3045;43.226;27.858;2023-12-14T06:24:41;27492.50;;;13.15;100.00
6034;BME280;3045;43.226;27.858;2023-12-14T06:27:08;29112.91;;;13.20;100.00
6034;BME280;3045;43.226;27.858;2023-12-14T06:29:36;30730.47;;;13.17;100.00
6034;BME280;3045;43.226;27.858;2023-12-14T06:32:03;31058.25;;;13.24;100.00
6034;BME280;3045;43.226;27.858;2023-12-14T06:34:30;36243.75;;;13.22;100.00
6034;BME280;3045;43.226;27.858;2023-12-14T06:36:57;44363.56;;;13.22;100.00
6034;BME280;3045;43.226;27.858;2023-12-14T06:39:25;53471.63;;;13.11;100.00
6034;BME280;3045;43.226;27.858;2023-12-14T06:41:54;49884.69;;;13.08;100.00
6034;BME280;3045;43.226;27.858;2023-12-14T06:44:21;45322.19;;;13.00;100.00
6034;BME280;3045;43.226;27.858;2023-12-14T06:46:48;41112.44;;;13.21;100.00
6034;BME280;3045;43.226;27.858;2023-12-14T06:49:15;37866.91;;;13.23;100.00
6034;BME280;3045;43.226;27.858;2023-12-14T06:51:42;34304.59;;;13.34;100.00
6034;BME280;3045;43.226;27.858;2023-12-14T06:54:10;34955.09;;;13.37;100.00
6034;BME280;3045;43.226;27.858;2023-12-14T06:56:37;34636.94;;;13.47;100.00
6034;BME280;3045;43.226;27.858;2023-12-14T06:59:05;36914.31;;;13.56;100.00
6034;BME280;3045;43.226;27.858;2023-12-14T07:01:32;39195.63;;;13.67;100.00
6034;BME280;3045;43.226;27.858;2023-12-14T07:04:00;38875.19;;;13.74;100.00
6034;BME280;3045;43.226;27.858;2023-12-14T07:06:28;44093.72;;;13.94;100.00
6034;BME280;3045;43.226;27.858;2023-12-14T07:08:55;52243.19;;;13.95;100.00
6034;BME280;3045;43.226;27.858;2023-12-14T07:11:22;58798.16;;;14.17;100.00
6034;BME280;3045;43.226;27.858;2023-12-14T07:13:49;63064.34;;;14.28;100.00
6034;BME280;3045;43.226;27.858;2023-12-14T07:16:18;69304.88;;;14.37;100.00
6034;BME280;3045;43.226;27.858;2023-12-14T07:18:45;82473.72;;;14.48;100.00
6034;BME280;3045;43.226;27.858;2023-12-14T07:21:12;90401.44;;;14.55;100.00
6034;BME280;3045;43.226;27.858;2023-12-14T07:23:39;96031.16;;;14.61;100.00
6034;BME280;3045;43.226;27.858;2023-12-14T07:26:06;101332.84;;;14.63;100.00
6034;BME280;3045;43.226;27.858;2023-12-14T07:28:33;102993.72;;;14.65;100.00
6034;BME280;3045;43.226;27.858;2023-12-14T07:31:00;103665.75;;;14.70;100.00
6034;BME280;3045;43.226;27.858;2023-12-14T07:33:29;105650.91;;;14.67;100.00
6034;BME280;3045;43.226;27.858;2023-12-14T07:35:56;102026.88;;;14.81;100.00
6034;BME280;3045;43.226;27.858;2023-12-14T07:38:23;103695.69;;;14.87;100.00
6034;BME280;3045;43.226;27.858;2023-12-14T07:40:50;106695.44;;;14.94;100.00
6034;BME280;3045;43.226;27.858;2023-12-14T07:43:18;113029.84;;;15.04;100.00
6034;BME280;3045;43.226;27.858;2023-12-14T07:45:45;116364.66;;;15.07;100.00
6034;BME280;3045;43.226;27.858;2023-12-14T07:48:12;121052.28;;;15.18;100.00
6034;BME280;3045;43.226;27.858;2023-12-14T07:50:40;123070.94;;;15.26;100.00
6034;BME280;3045;43.226;27.858;2023-12-14T07:53:07;124759.38;;;15.35;100.00
6034;BME280;3045;43.226;27.858;2023-12-14T07:55:34;133435.16;;;15.27;100.00
6034;BME280;3045;43.226;27.858;2023-12-14T07:58:01;141288.03;;;15.37;100.00
6034;BME280;3045;43.226;27.858;2023-12-14T08:00:28;149948.59;;;15.56;100.00
6034;BME280;3045;43.226;27.858;2023-12-14T08:02:55;147256.94;;;15.61;100.00
6034;BME280;3045;43.226;27.858;2023-12-14T08:05:22;149958.72;;;15.60;100.00
6034;BME280;3045;43.226;27.858;2023-12-14T08:07:51;150013.31;;;15.82;100.00
6034;BME280;3045;43.226;27.858;2023-12-14T08:10:19;150046.31;;;15.95;100.00
6034;BME280;3045;43.226;27.858;2023-12-14T08:12:46;150065.34;;;16.03;100.00
6034;BME280;3045;43.226;27.858;2023-12-14T08:15:14;150015.81;;;15.83;100.00
6034;BME280;3045;43.226;27.858;2023-12-14T08:17:41;150042.50;;;15.93;100.00
6034;BME280;3045;43.226;27.858;2023-12-14T08:20:09;150047.56;;;15.95;100.00
6034;BME280;3045;43.226;27.858;2023-12-14T08:22:38;150037.41;;;15.91;100.00
6034;BME280;3045;43.226;27.858;2023-12-14T08:25:11;148121.47;;;15.60;100.00
6034;BME280;3045;43.226;27.858;2023-12-14T08:27:40;125808.44;;;15.58;100.00
6034;BME280;3045;43.226;27.858;2023-12-14T08:30:08;125492.28;;;15.66;100.00
6034;BME280;3045;43.226;27.858;2023-12-14T08:32:35;142616.06;;;15.50;100.00
6034;BME280;3045;43.226;27.858;2023-12-14T08:35:02;127804.69;;;15.53;100.00
6034;BME280;3045;43.226;27.858;2023-12-14T08:37:30;125132.63;;;15.54;100.00
6034;BME280;3045;43.226;27.858;2023-12-14T08:39:57;123830.91;;;15.71;100.00
6034;BME280;3045;43.226;27.858;2023-12-14T08:42:25;120528.13;;;15.89;100.00
6034;BME280;3045;43.226;27.858;2023-12-14T08:44:52;113872.91;;;15.97;100.00
6034;BME280;3045;43.226;27.858;2023-12-14T08:47:19;122211.44;;;15.95;100.00
6034;BME280;3045;43.226;27.858;2023-12-14T08:49:46;132589.16;;;15.98;100.00
6034;BME280;3045;43.226;27.858;2023-12-14T08:52:13;132943.38;;;16.07;100.00
6034;BME280;3045;43.226;27.858;2023-12-14T08:54:41;139370.34;;;16.29;100.00
6034;BME280;3045;43.226;27.858;2023-12-14T08:57:09;150156.72;;;16.39;100.00
6034;BME280;3045;43.226;27.858;2023-12-14T08:59:37;148745.03;;;16.47;100.00
6034;BME280;3045;43.226;27.858;2023-12-14T09:02:04;145409.72;;;16.61;100.00
6034;BME280;3045;43.226;27.858;2023-12-14T09:04:31;150172.09;;;16.59;100.00
6034;BME280;3045;43.226;27.858;2023-12-14T09:07:01;150259.69;;;16.80;100.00
6034;BME280;3045;43.226;27.858;2023-12-14T09:09:29;150249.53;;;16.76;100.00
6034;BME280;3045;43.226;27.858;2023-12-14T09:11:58;150282.50;;;16.89;100.00
6034;BME280;3045;43.226;27.858;2023-12-14T09:14:25;150302.88;;;16.97;100.00
6034;BME280;3045;43.226;27.858;2023-12-14T09:16:54;150316.81;;;17.03;100.00
6034;BME280;3045;43.226;27.858;2023-12-14T09:19:21;150352.41;;;17.17;100.00
6034;BME280;3045;43.226;27.858;2023-12-14T09:21:48;150377.81;;;17.27;100.00
6034;BME280;3045;43.226;27.858;2023-12-14T09:24:15;150346.03;;;17.14;100.00
6034;BME280;3045;43.226;27.858;2023-12-14T09:26:43;150356.22;;;17.18;100.00
6034;BME280;3045;43.226;27.858;2023-12-14T09:29:10;150361.28;;;17.20;100.00
6034;BME280;3045;43.226;27.858;2023-12-14T09:31:39;150380.34;;;17.28;100.00
6034;BME280;3045;43.226;27.858;2023-12-14T09:34:08;150375.28;;;17.26;100.00
6034;BME280;3045;43.226;27.858;2023-12-14T09:36:36;150400.66;;;17.36;100.00
6034;BME280;3045;43.226;27.858;2023-12-14T09:39:03;150403.22;;;17.37;100.00
6034;BME280;3045;43.226;27.858;2023-12-14T09:41:30;150456.63;;;17.58;100.00
6034;BME280;3045;43.226;27.858;2023-12-14T09:43:57;150438.81;;;17.51;100.00
6034;BME280;3045;43.226;27.858;2023-12-14T09:46:25;150454.03;;;17.57;100.00
6034;BME280;3045;43.226;27.858;2023-12-14T09:48:56;150475.69;;;17.66;100.00
6034;BME280;3045;43.226;27.858;2023-12-14T09:51:26;150464.25;;;17.61;100.00
6034;BME280;3045;43.226;27.858;2023-12-14T09:53:53;150457.91;;;17.59;100.00
6034;BME280;3045;43.226;27.858;2023-12-14T09:56:23;150478.25;;;17.67;100.00
6034;BME280;3045;43.226;27.858;2023-12-14T09:58:50;150490.97;;;17.72;100.00
6034;BME280;3045;43.226;27.858;2023-12-14T10:01:24;150471.91;;;17.64;100.00
6034;BME280;3045;43.226;27.858;2023-12-14T10:04:07;150492.22;;;17.72;100.00
6034;BME280;3045;43.226;27.858;2023-12-14T10:06:36;150513.84;;;17.81;100.00
6034;BME280;3045;43.226;27.858;2023-12-14T10:09:03;150516.41;;;17.82;100.00
6034;BME280;3045;43.226;27.858;2023-12-14T10:11:34;150532.91;;;17.89;100.00
6034;BME280;3045;43.226;27.858;2023-12-14T10:14:01;150600.28;;;18.15;100.00
6034;BME280;3045;43.226;27.858;2023-12-14T10:16:29;150611.75;;;18.20;100.00
6034;BME280;3045;43.226;27.858;2023-12-14T10:18:57;150640.97;;;18.32;100.00
6034;BME280;3045;43.226;27.858;2023-12-14T10:21:26;150667.66;;;18.42;100.00
6034;BME280;3045;43.226;27.858;2023-12-14T10:23:56;150710.94;;;18.59;100.00
6034;BME280;3045;43.226;27.858;2023-12-14T10:26:23;150756.75;;;18.78;100.00
6034;BME280;3045;43.226;27.858;2023-12-14T10:28:51;150779.63;;;18.87;100.00
6034;BME280;3045;43.226;27.858;2023-12-14T10:31:19;150826.69;;;19.05;100.00
6034;BME280;3045;43.226;27.858;2023-12-14T10:33:47;150908.16;;;19.38;100.00
6034;BME280;3045;43.226;27.858;2023-12-14T10:36:15;150947.63;;;19.53;100.00
6034;BME280;3045;43.226;27.858;2023-12-14T10:38:48;150980.72;;;19.67;100.00
6034;BME280;3045;43.226;27.858;2023-12-14T10:41:20;151043.09;;;19.91;100.00
6034;BME280;3045;43.226;27.858;2023-12-14T10:43:48;151069.84;;;20.02;100.00
6034;BME280;3045;43.226;27.858;2023-12-14T10:46:22;151116.94;;;20.21;100.00
6034;BME280;3045;43.226;27.858;2023-12-14T10:48:51;151169.19;;;20.41;100.00
6034;BME280;3045;43.226;27.858;2023-12-14T10:51:20;151198.50;;;20.53;100.00
6034;BME280;3045;43.226;27.858;2023-12-14T10:53:48;151160.28;;;20.38;100.00
6034;BME280;3045;43.226;27.858;2023-12-14T10:56:19;151138.63;;;20.29;100.00
6034;BME280;3045;43.226;27.858;2023-12-14T10:58:47;151109.31;;;20.18;100.00
6034;BME280;3045;43.226;27.858;2023-12-14T11:01:15;151099.13;;;20.14;100.00
6034;BME280;3045;43.226;27.858;2023-12-14T11:03:43;151055.81;;;19.96;100.00
6034;BME280;3045;43.226;27.858;2023-12-14T11:06:30;150975.66;;;19.65;100.00
6034;BME280;3045;43.226;27.858;2023-12-14T11:08:59;150833.06;;;19.08;100.00
6034;BME280;3045;43.226;27.858;2023-12-14T11:11:39;150774.53;;;18.85;100.00
6034;BME280;3045;43.226;27.858;2023-12-14T11:14:08;150754.19;;;18.77;100.00
6034;BME280;3045;43.226;27.858;2023-12-14T11:16:38;150750.41;;;18.75;100.00
6034;BME280;3045;43.226;27.858;2023-12-14T11:19:40;150749.13;;;18.75;100.00
6034;BME280;3045;43.226;27.858;2023-12-14T11:22:11;150696.97;;;18.54;100.00
6034;BME280;3045;43.226;27.858;2023-12-14T11:24:46;150698.22;;;18.54;100.00
6034;BME280;3045;43.226;27.858;2023-12-14T11:27:20;150700.75;;;18.55;100.00
6034;BME280;3045;43.226;27.858;2023-12-14T11:29:48;150708.44;;;18.58;100.00
6034;BME280;3045;43.226;27.858;2023-12-14T11:32:17;150679.09;;;18.47;100.00
6034;BME280;3045;43.226;27.858;2023-12-14T11:34:46;150660.03;;;18.39;100.00
6034;BME280;3045;43.226;27.858;2023-12-14T11:37:13;150626.97;;;18.26;100.00
6034;BME280;3045;43.226;27.858;2023-12-14T11:39:42;150648.59;;;18.35;100.00
6034;BME280;3045;43.226;27.858;2023-12-14T11:42:13;150698.22;;;18.54;100.00
6034;BME280;3045;43.226;27.858;2023-12-14T11:44:45;150758.03;;;18.78;100.00
6034;BME280;3045;43.226;27.858;2023-12-14T11:47:23;150796.16;;;18.93;100.00
6034;BME280;3045;43.226;27.858;2023-12-14T11:49:56;150835.63;;;19.09;100.00
6034;BME280;3045;43.226;27.858;2023-12-14T11:52:24;150876.34;;;19.25;100.00
6034;BME280;3045;43.226;27.858;2023-12-14T11:54:56;150915.75;;;19.41;100.00
6034;BME280;3045;43.226;27.858;2023-12-14T11:57:28;150950.19;;;19.54;100.00
6034;BME280;3045;43.226;27.858;2023-12-14T11:59:59;150959.09;;;19.58;100.00
6034;BME280;3045;43.226;27.858;2023-12-14T12:02:26;150970.53;;;19.63;100.00
6034;BME280;3045;43.226;27.858;2023-12-14T12:04:53;150990.91;;;19.71;100.00
6034;BME280;3045;43.226;27.858;2023-12-14T12:07:21;151001.09;;;19.75;100.00
6034;BME280;3045;43.226;27.858;2023-12-14T12:09:48;150980.72;;;19.67;100.00
6034;BME280;3045;43.226;27.858;2023-12-14T12:12:15;150970.53;;;19.63;100.00
6034;BME280;3045;43.226;27.858;2023-12-14T12:14:42;150971.81;;;19.63;100.00
6034;BME280;3045;43.226;27.858;2023-12-14T12:17:10;150928.56;;;19.46;100.00
6034;BME280;3045;43.226;27.858;2023-12-14T12:19:40;150968.00;;;19.61;100.00
6034;BME280;3045;43.226;27.858;2023-12-14T12:22:08;150937.44;;;19.49;100.00
6034;BME280;3045;43.226;27.858;2023-12-14T12:24:35;150943.78;;;19.52;100.00
6034;BME280;3045;43.226;27.858;2023-12-14T12:27:03;150909.44;;;19.38;100.00
6034;BME280;3045;43.226;27.858;2023-12-14T12:29:30;150892.84;;;19.32;100.00
6034;BME280;3045;43.226;27.858;2023-12-14T12:31:58;150919.59;;;19.42;100.00
6034;BME280;3045;43.226;27.858;2023-12-14T12:34:27;150911.94;;;19.39;100.00
6034;BME280;3045;43.226;27.858;2023-12-14T12:36:54;150922.22;;;19.43;100.00
6034;BME280;3045;43.226;27.858;2023-12-14T12:39:23;150920.94;;;19.43;100.00
6034;BME280;3045;43.226;27.858;2023-12-14T12:41:50;150911.94;;;19.39;100.00
6034;BME280;3045;43.226;27.858;2023-12-14T12:44:17;150858.50;;;19.18;100.00
6034;BME280;3045;43.226;27.858;2023-12-14T12:46:44;150922.22;;;19.43;100.00
6034;BME280;3045;43.226;27.858;2023-12-14T12:49:11;150885.22;;;19.29;100.00
6034;BME280;3045;43.226;27.858;2023-12-14T12:51:39;150857.25;;;19.17;100.00
6034;BME280;3045;43.226;27.858;2023-12-14T12:54:05;150854.72;;;19.16;100.00
6034;BME280;3045;43.226;27.858;2023-12-14T12:56:32;150764.34;;;18.81;100.00
6034;BME280;3045;43.226;27.858;2023-12-14T12:58:59;150705.88;;;18.57;100.00
6034;BME280;3045;43.226;27.858;2023-12-14T13:01:26;150695.72;;;18.53;100.00
6034;BME280;3045;43.226;27.858;2023-12-14T13:03:54;150647.31;;;18.34;100.00